createdAt,value
2019-04-11T07:00:47.902Z,11.00
2019-04-11T07:03:23.114Z,10.73
2019-04-11T07:05:50.982Z,6.60
2019-04-11T07:08:22.260Z,5.17
2019-04-11T07:10:55.836Z,5.53
2019-04-11T07:13:55.538Z,7.17
2019-04-11T07:16:23.800Z,7.37
2019-04-11T07:19:11.438Z,4.53
2019-04-11T07:21:39.751Z,3.77
2019-04-11T07:24:20.346Z,7.22
2019-04-11T07:26:57.044Z,3.58
2019-04-11T07:30:03.243Z,7.05
2019-04-11T07:32:32.015Z,3.33
2019-04-11T07:35:31.871Z,4.75
2019-04-11T07:38:01.072Z,3.58
2019-04-11T07:40:47.679Z,3.83
2019-04-11T07:43:19.079Z,4.67
2019-04-11T07:46:22.216Z,6.65
2019-04-11T07:51:28.546Z,6.45
2019-04-11T07:53:58.151Z,6.05
2019-04-11T07:57:04.175Z,3.75
2019-04-11T07:59:51.243Z,4.50
2019-04-11T08:02:37.896Z,3.98
2019-04-11T08:05:25.796Z,4.40
2019-04-11T08:08:25.868Z,16.70
2019-04-11T08:11:02.282Z,5.80
2019-04-11T08:13:39.067Z,7.75
2019-04-11T08:16:25.414Z,18.57
2019-04-11T08:19:17.229Z,6.95
2019-04-11T08:22:14.778Z,10.75
2019-04-11T08:24:53.107Z,7.83
2019-04-11T08:27:31.595Z,5.37
2019-04-11T08:30:00.460Z,4.22
2019-04-11T08:32:58.274Z,7.30
2019-04-11T08:35:52.936Z,4.58
2019-04-11T08:38:26.860Z,7.50
2019-04-11T08:41:20.310Z,5.33
2019-04-11T08:43:50.957Z,9.00
2019-04-11T08:46:30.918Z,5.85
2019-04-11T08:49:01.552Z,4.35
2019-04-11T08:51:30.116Z,5.90
2019-04-11T08:54:17.462Z,3.87
2019-04-11T08:56:45.501Z,6.65
2019-04-11T08:59:44.036Z,3.90
2019-04-11T09:02:33.289Z,7.15
2019-04-11T09:05:18.807Z,11.60
2019-04-11T09:08:11.523Z,9.40
2019-04-11T09:10:56.033Z,10.58
2019-04-11T09:13:53.795Z,7.28
2019-04-11T09:17:00.048Z,20.32
2019-04-11T09:20:03.315Z,43.05
2019-04-11T09:22:35.324Z,66.62
2019-04-11T09:25:43.438Z,82.60
2019-04-11T09:28:17.512Z,104.90
2019-04-11T09:31:14.938Z,256.23
2019-04-11T09:34:01.525Z,564.95
2019-04-11T09:36:39.493Z,490.85
2019-04-11T09:39:17.127Z,453.00
2019-04-11T09:42:03.531Z,368.52
2019-04-11T09:44:49.092Z,348.00
2019-04-11T09:47:40.411Z,339.00
2019-04-11T09:50:14.809Z,329.38
2019-04-11T09:52:45.301Z,274.92
2019-04-11T09:55:23.312Z,277.27
2019-04-11T09:57:58.242Z,249.35
2019-04-11T10:00:36.756Z,233.63
2019-04-11T10:03:21.219Z,247.15
2019-04-11T10:06:12.743Z,73.70
2019-04-11T10:08:49.108Z,26.57
2019-04-11T10:11:36.084Z,16.62
2019-04-11T10:14:07.367Z,18.80
2019-04-11T10:16:53.811Z,30.25
2019-04-11T10:19:51.869Z,28.12
2019-04-11T10:22:49.059Z,23.75
2019-04-11T10:25:37.524Z,20.55
2019-04-11T10:28:25.170Z,18.23
2019-04-11T10:31:14.552Z,21.87
2019-04-11T10:33:50.399Z,17.42
2019-04-11T10:36:29.558Z,22.77
2019-04-11T10:39:09.013Z,18.37
2019-04-11T10:41:38.337Z,18.05
2019-04-11T10:44:07.649Z,18.42
2019-04-11T10:46:58.467Z,20.43
2019-04-11T10:49:50.465Z,15.18
2019-04-11T10:52:38.537Z,16.00
2019-04-11T10:55:11.364Z,15.93
2019-04-11T10:57:44.710Z,17.10
2019-04-11T11:00:24.427Z,14.33
2019-04-11T11:03:07.673Z,15.98
2019-04-11T11:05:38.316Z,13.53
2019-04-11T11:08:17.341Z,13.38
2019-04-11T11:10:45.889Z,15.95
2019-04-11T11:13:23.648Z,13.28
2019-04-11T11:15:55.901Z,14.73
2019-04-11T11:21:29.927Z,13.13
2019-04-11T11:24:28.233Z,12.50
2019-04-11T11:26:58.782Z,12.98
2019-04-11T11:29:47.520Z,12.70
2019-04-11T11:32:21.070Z,14.25
2019-04-11T11:35:22.447Z,11.18
2019-04-11T11:38:13.619Z,12.53
2019-04-11T11:41:00.450Z,13.03
2019-04-11T11:43:30.923Z,11.65
2019-04-11T11:46:19.695Z,11.53
2019-04-11T11:49:36.322Z,12.73
2019-04-11T11:52:22.996Z,11.68
2019-04-11T11:57:29.185Z,10.18
2019-04-11T12:00:05.626Z,11.12
2019-04-11T12:02:54.372Z,10.32
2019-04-11T12:05:27.087Z,8.90
2019-04-11T12:08:18.308Z,13.62
2019-04-11T12:10:49.542Z,12.05
2019-04-11T12:13:43.433Z,18.35
2019-04-11T12:16:21.885Z,13.25
2019-04-11T12:18:55.689Z,15.25
2019-04-11T12:21:28.056Z,13.90
2019-04-11T12:24:30.678Z,11.68
2019-04-11T12:27:37.122Z,11.50
2019-04-11T12:30:30.495Z,9.33
2019-04-11T12:33:25.668Z,14.18
2019-04-11T12:36:05.515Z,11.55
2019-04-11T12:38:43.469Z,8.45
2019-04-11T12:41:16.137Z,10.18
2019-04-11T12:44:03.828Z,8.23
2019-04-11T12:46:50.290Z,9.38
2019-04-11T12:49:28.069Z,8.23
2019-04-11T12:52:14.494Z,9.15
2019-04-11T12:54:43.236Z,8.98
2019-04-11T12:57:29.647Z,10.13
2019-04-11T13:00:06.432Z,9.08
2019-04-11T13:02:52.762Z,10.48
2019-04-11T13:05:21.583Z,7.92
2019-04-11T13:08:15.294Z,8.00
2019-04-11T13:10:43.695Z,8.90
2019-04-11T13:13:31.406Z,7.42
2019-04-11T13:16:11.317Z,6.97
2019-04-11T13:19:04.090Z,8.60
2019-04-11T13:21:41.692Z,6.05
2019-04-11T13:24:38.672Z,6.55
2019-04-11T13:27:17.980Z,7.00
2019-04-11T13:30:05.560Z,8.15
2019-04-11T13:32:52.043Z,7.92
2019-04-11T13:35:38.478Z,5.65
2019-04-11T13:38:08.669Z,6.78
2019-04-11T13:40:55.738Z,8.25
2019-04-11T13:43:43.531Z,13.18
2019-04-11T13:46:23.399Z,10.23
2019-04-11T13:49:10.153Z,11.20
2019-04-11T13:51:54.497Z,8.60
2019-04-11T13:54:40.885Z,8.53
2019-04-11T13:57:28.168Z,12.60
2019-04-11T14:00:14.603Z,7.67
2019-04-11T14:02:57.621Z,6.53
2019-04-11T14:05:26.038Z,7.17
2019-04-11T14:07:56.047Z,6.37
2019-04-11T14:10:26.502Z,11.95
2019-04-11T14:12:56.187Z,9.53
2019-04-11T14:15:24.586Z,5.62
2019-04-11T14:18:00.082Z,8.03
2019-04-11T14:21:26.135Z,3.00
2019-04-11T14:24:16.873Z,3.60
2019-04-11T14:26:47.099Z,6.25
2019-04-11T14:29:33.779Z,3.95
2019-04-11T14:32:23.560Z,4.53
2019-04-11T14:35:17.709Z,4.03
2019-04-11T14:37:57.940Z,5.35
2019-04-11T14:40:43.087Z,5.42
2019-04-11T14:43:25.749Z,4.53
2019-04-11T14:46:23.189Z,4.28
2019-04-11T14:49:11.209Z,4.00
2019-04-11T14:51:59.644Z,7.33
2019-04-11T14:54:50.771Z,4.05
2019-04-11T14:57:55.672Z,6.20
2019-04-11T15:00:35.224Z,8.58
2019-04-11T15:03:22.858Z,4.78
2019-04-11T15:06:10.201Z,5.08
2019-04-11T15:09:01.597Z,5.28
2019-04-11T15:11:53.795Z,6.53
2019-04-11T15:14:55.115Z,3.08
2019-04-11T15:17:29.126Z,3.52
2019-04-11T15:20:16.790Z,6.12
2019-04-11T15:22:48.033Z,5.45
2019-04-11T15:25:27.547Z,3.58
2019-04-11T15:28:15.341Z,4.22
2019-04-11T15:30:48.554Z,7.12
2019-04-11T15:33:32.622Z,5.10
2019-04-11T15:36:01.350Z,5.03
2019-04-11T15:39:02.471Z,6.62
2019-04-11T15:41:33.221Z,4.28
2019-04-11T15:44:32.891Z,7.35
2019-04-11T15:47:02.108Z,6.87
2019-04-11T15:49:48.203Z,7.58
2019-04-11T15:52:20.063Z,5.42
2019-04-11T15:54:57.233Z,12.15
2019-04-11T15:57:46.713Z,8.50
2019-04-11T16:00:33.748Z,11.97
2019-04-11T16:03:09.992Z,13.38
2019-04-11T16:06:02.191Z,7.08
2019-04-11T16:08:43.958Z,7.22
2019-04-11T16:11:30.381Z,5.87
2019-04-11T16:14:11.272Z,6.62
2019-04-11T16:17:05.333Z,5.78
2019-04-11T16:19:58.279Z,5.45
2019-04-11T16:22:46.967Z,5.33
2019-04-11T16:25:17.299Z,5.90
2019-04-11T16:28:07.764Z,5.15
2019-04-11T16:30:41.413Z,4.92
2019-04-11T16:33:24.487Z,4.55
2019-04-11T16:36:00.066Z,5.12
2019-04-11T16:38:31.002Z,5.70
2019-04-11T16:41:18.824Z,6.10
2019-04-11T16:43:54.502Z,4.72
2019-04-11T16:46:50.320Z,5.08
2019-04-11T16:49:18.869Z,3.72
2019-04-11T16:51:49.087Z,4.85
2019-04-11T16:54:17.678Z,5.45
2019-04-11T16:56:45.693Z,5.40
2019-04-11T16:59:15.252Z,5.42
2019-04-11T17:01:45.306Z,6.12
2019-04-11T17:04:13.491Z,3.27
2019-04-11T17:07:08.890Z,4.78
2019-04-11T17:09:42.510Z,3.65
2019-04-11T17:12:15.321Z,7.17
2019-04-11T17:14:47.385Z,11.05
2019-04-11T17:17:26.124Z,9.20
2019-04-11T17:20:00.414Z,5.35
2019-04-11T17:22:28.638Z,8.38
2019-04-11T17:24:57.350Z,7.20
2019-04-11T17:27:27.810Z,6.42
2019-04-11T17:29:56.022Z,4.67
2019-04-11T17:32:28.765Z,5.08
2019-04-11T17:37:30.963Z,4.28
2019-04-11T17:39:59.163Z,5.37
2019-04-11T17:42:27.336Z,5.70
2019-04-11T17:44:55.481Z,4.92
2019-04-11T17:47:26.768Z,6.22
2019-04-11T17:49:54.369Z,8.80
2019-04-11T17:52:22.587Z,8.05
2019-04-11T17:54:51.964Z,7.50
2019-04-11T17:57:21.665Z,6.60
2019-04-11T17:59:49.742Z,7.65
2019-04-11T18:02:19.157Z,8.68
2019-04-11T18:04:48.113Z,9.10
2019-04-11T18:07:18.438Z,11.10
2019-04-11T18:09:46.528Z,9.08
2019-04-11T18:12:14.700Z,5.70
2019-04-11T18:14:42.803Z,9.78
2019-04-11T18:17:10.878Z,7.25
2019-04-11T18:19:38.910Z,6.17
2019-04-11T18:22:14.264Z,9.23
2019-04-11T18:24:42.691Z,4.95
2019-04-11T18:27:13.855Z,4.50
2019-04-11T18:29:43.092Z,4.72
2019-04-11T18:32:11.209Z,6.30
2019-04-11T18:34:40.233Z,4.97
2019-04-11T18:37:12.774Z,9.30
2019-04-11T18:39:42.581Z,6.78
2019-04-11T18:42:15.383Z,4.40
2019-04-11T18:44:43.474Z,4.45
2019-04-11T18:47:43.154Z,6.00
2019-04-11T18:50:15.719Z,4.22
2019-04-11T18:52:46.090Z,7.75
2019-04-11T18:55:16.562Z,5.30
2019-04-11T18:57:45.063Z,4.72
2019-04-11T19:00:19.850Z,5.25
2019-04-11T19:02:48.168Z,6.15
2019-04-11T19:05:23.311Z,4.65
2019-04-11T19:07:46.499Z,3.95
2019-04-11T19:10:15.721Z,5.33
2019-04-11T19:12:46.465Z,3.58
2019-04-11T19:15:16.682Z,6.45
2019-04-11T19:17:47.434Z,2.95
2019-04-11T19:20:19.161Z,2.95
2019-04-11T19:22:47.811Z,3.00
2019-04-11T19:25:16.798Z,11.57
2019-04-11T19:27:45.212Z,6.97
2019-04-11T19:30:14.295Z,6.60
2019-04-11T19:32:46.798Z,3.85
2019-04-11T19:35:15.086Z,5.33
2019-04-11T19:37:43.309Z,5.90
2019-04-11T19:40:11.511Z,6.72
2019-04-11T19:42:39.680Z,5.90
2019-04-11T19:45:09.492Z,7.55
2019-04-11T19:47:38.650Z,5.30
2019-04-11T19:50:08.899Z,8.00
2019-04-11T19:52:45.368Z,4.00
2019-04-11T19:55:38.528Z,5.17
2019-04-11T19:58:07.789Z,3.87
2019-04-11T20:00:59.174Z,4.03
2019-04-11T20:03:31.869Z,3.85
2019-04-11T20:06:00.787Z,5.10
2019-04-11T20:08:30.248Z,10.28
2019-04-11T20:11:01.096Z,3.98
2019-04-11T20:13:31.959Z,6.35
2019-04-11T20:16:00.418Z,4.50
2019-04-11T20:18:28.592Z,4.00
2019-04-11T20:20:56.713Z,4.55
2019-04-11T20:23:41.517Z,9.10
2019-04-11T20:26:10.275Z,14.15
2019-04-11T20:28:40.288Z,13.53
2019-04-11T20:31:08.306Z,10.30
2019-04-11T20:33:36.302Z,10.63
2019-04-11T20:36:08.101Z,11.55
2019-04-11T20:38:44.716Z,10.32
2019-04-11T20:41:12.140Z,9.93
2019-04-11T20:43:43.246Z,10.65
2019-04-11T20:46:11.666Z,8.55
2019-04-11T20:48:40.866Z,8.55
2019-04-11T20:51:10.230Z,6.37
2019-04-11T20:53:38.632Z,7.12
2019-04-11T20:56:09.904Z,6.25
2019-04-11T20:58:41.794Z,7.85
2019-04-11T21:01:12.095Z,8.13
2019-04-11T21:03:41.165Z,10.00
2019-04-11T21:06:10.666Z,8.45
2019-04-11T21:08:39.662Z,5.22
2019-04-11T21:11:07.970Z,6.97
2019-04-11T21:13:38.488Z,7.10
2019-04-11T21:16:07.037Z,5.60
2019-04-11T21:18:36.077Z,7.08
2019-04-11T21:21:05.028Z,6.33
2019-04-11T21:23:33.105Z,5.22
2019-04-11T21:26:01.222Z,5.37
2019-04-11T21:28:30.371Z,5.25
2019-04-11T21:31:00.833Z,6.65
2019-04-11T21:33:34.950Z,4.08
2019-04-11T21:36:02.530Z,5.55
2019-04-11T21:38:31.578Z,7.67
2019-04-11T21:40:59.761Z,6.72
2019-04-11T21:43:28.522Z,5.67
2019-04-11T21:45:56.508Z,4.65
2019-04-11T21:48:24.564Z,4.92
2019-04-11T21:50:52.628Z,4.40
2019-04-11T21:53:20.610Z,6.70
2019-04-11T21:55:48.572Z,4.20
2019-04-11T21:58:19.445Z,5.97
2019-04-11T22:00:54.365Z,6.33
2019-04-11T22:03:24.345Z,5.62
2019-04-11T22:05:53.106Z,3.95
2019-04-11T22:08:21.570Z,5.72
2019-04-11T22:10:49.895Z,4.22
2019-04-11T22:13:17.884Z,4.47
2019-04-11T22:15:45.864Z,5.70
2019-04-11T22:18:16.784Z,6.65
2019-04-11T22:20:45.253Z,5.45
2019-04-11T22:23:13.954Z,5.28
2019-04-11T22:25:43.362Z,5.30
2019-04-11T22:28:11.876Z,4.08
2019-04-11T22:30:39.862Z,4.28
2019-04-11T22:33:15.672Z,7.50
2019-04-11T22:35:43.688Z,4.62
2019-04-11T22:38:11.664Z,6.22
2019-04-11T22:40:39.630Z,3.90
2019-04-11T22:43:08.283Z,6.83
2019-04-11T22:45:37.913Z,10.18
2019-04-11T22:48:08.489Z,5.83
2019-04-11T22:50:40.426Z,6.45
2019-04-11T22:53:06.041Z,5.30
2019-04-11T22:55:34.138Z,5.45
2019-04-11T22:58:02.871Z,4.95
2019-04-11T23:00:30.900Z,6.17
2019-04-11T23:03:10.668Z,3.95
2019-04-11T23:05:38.998Z,6.65
2019-04-11T23:08:07.030Z,4.40
2019-04-11T23:10:35.410Z,3.60
2019-04-11T23:13:03.537Z,3.52
2019-04-11T23:15:31.518Z,8.43
2019-04-11T23:17:59.522Z,5.45
2019-04-11T23:20:27.570Z,8.28
2019-04-11T23:22:55.564Z,5.65
2019-04-11T23:25:23.591Z,7.22
2019-04-11T23:27:51.666Z,11.30
2019-04-11T23:30:21.211Z,6.35
2019-04-11T23:32:51.678Z,8.35
2019-04-11T23:35:21.114Z,5.78
2019-04-11T23:37:51.202Z,8.05
2019-04-11T23:40:21.759Z,5.80
2019-04-11T23:42:50.849Z,6.28
2019-04-11T23:45:24.022Z,7.92
2019-04-11T23:47:54.079Z,5.78
2019-04-11T23:50:24.937Z,5.00
2019-04-11T23:52:52.206Z,5.60
2019-04-11T23:55:20.182Z,8.70
2019-04-11T23:57:48.124Z,6.53
